sensor_id;sensor_type;location;lat;lon;timestamp;temperature;humidity
9800;DHT22;4939;52.00085300;4.17406100;2023-06-19T00:01:51;20.90;99.90
9800;DHT22;4939;52.00085300;4.17406100;2023-06-19T00:04:17;20.80;99.90
9800;DHT22;4939;52.00085300;4.17406100;2023-06-19T00:06:43;20.80;99.90
9800;DHT22;4939;52.00085300;4.17406100;2023-06-19T00:09:08;20.80;99.90
9800;DHT22;4939;52.00085300;4.17406100;2023-06-19T00:11:34;20.80;99.90
9800;DHT22;4939;52.00085300;4.17406100;2023-06-19T00:14:00;20.70;99.90
9800;DHT22;4939;52.00085300;4.17406100;2023-06-19T00:16:26;20.60;99.90
9800;DHT22;4939;52.00085300;4.17406100;2023-06-19T00:18:52;20.60;99.90
9800;DHT22;4939;52.00085300;4.17406100;2023-06-19T00:21:25;20.50;99.90
9800;DHT22;4939;52.00085300;4.17406100;2023-06-19T00:23:51;21.50;99.90
9800;DHT22;4939;52.00085300;4.17406100;2023-06-19T00:26:18;20.30;99.90
9800;DHT22;4939;52.00085300;4.17406100;2023-06-19T00:28:44;20.40;99.90
9800;DHT22;4939;52.00085300;4.17406100;2023-06-19T00:31:13;20.80;99.90
9800;DHT22;4939;52.00085300;4.17406100;2023-06-19T00:33:40;20.30;99.90
9800;DHT22;4939;52.00085300;4.17406100;2023-06-19T00:36:10;20.20;99.90
9800;DHT22;4939;52.00085300;4.17406100;2023-06-19T00:38:36;20.20;99.90
9800;DHT22;4939;52.00085300;4.17406100;2023-06-19T00:41:03;20.20;99.90
9800;DHT22;4939;52.00085300;4.17406100;2023-06-19T00:43:32;20.30;99.90
9800;DHT22;4939;52.00085300;4.17406100;2023-06-19T00:45:59;20.20;99.90
9800;DHT22;4939;52.00085300;4.17406100;2023-06-19T00:48:27;20.10;99.90
9800;DHT22;4939;52.00085300;4.17406100;2023-06-19T00:50:53;20.00;99.90
9800;DHT22;4939;52.00085300;4.17406100;2023-06-19T00:53:19;20.00;99.90
9800;DHT22;4939;52.00085300;4.17406100;2023-06-19T00:55:47;20.10;99.90
9800;DHT22;4939;52.00085300;4.17406100;2023-06-19T00:58:13;20.00;99.90
9800;DHT22;4939;52.00085300;4.17406100;2023-06-19T01:00:39;20.00;99.90
9800;DHT22;4939;52.00085300;4.17406100;2023-06-19T01:03:05;20.00;99.90
9800;DHT22;4939;52.00085300;4.17406100;2023-06-19T01:05:31;20.00;99.90
9800;DHT22;4939;52.00085300;4.17406100;2023-06-19T01:10:28;19.90;99.90
9800;DHT22;4939;52.00085300;4.17406100;2023-06-19T01:13:06;19.90;99.90
9800;DHT22;4939;52.00085300;4.17406100;2023-06-19T01:15:32;19.90;99.90
9800;DHT22;4939;52.00085300;4.17406100;2023-06-19T01:17:59;19.80;99.90
9800;DHT22;4939;52.00085300;4.17406100;2023-06-19T01:20:27;19.80;99.90
9800;DHT22;4939;52.00085300;4.17406100;2023-06-19T01:22:53;20.20;99.90
9800;DHT22;4939;52.00085300;4.17406100;2023-06-19T01:25:23;19.80;99.90
9800;DHT22;4939;52.00085300;4.17406100;2023-06-19T01:27:49;19.80;99.90
9800;DHT22;4939;52.00085300;4.17406100;2023-06-19T01:30:16;19.80;99.90
9800;DHT22;4939;52.00085300;4.17406100;2023-06-19T01:32:56;19.80;99.90
9800;DHT22;4939;52.00085300;4.17406100;2023-06-19T01:35:28;19.90;99.90
9800;DHT22;4939;52.00085300;4.17406100;2023-06-19T01:37:55;19.90;99.90
9800;DHT22;4939;52.00085300;4.17406100;2023-06-19T01:40:22;19.90;99.90
9800;DHT22;4939;52.00085300;4.17406100;2023-06-19T01:42:52;20.00;99.90
9800;DHT22;4939;52.00085300;4.17406100;2023-06-19T01:45:19;20.00;99.90
9800;DHT22;4939;52.00085300;4.17406100;2023-06-19T01:47:44;20.00;99.90
9800;DHT22;4939;52.00085300;4.17406100;2023-06-19T01:50:11;20.00;99.90
9800;DHT22;4939;52.00085300;4.17406100;2023-06-19T01:52:38;20.00;99.90
9800;DHT22;4939;52.00085300;4.17406100;2023-06-19T01:55:04;20.00;99.90
9800;DHT22;4939;52.00085300;4.17406100;2023-06-19T01:57:31;20.00;99.90
9800;DHT22;4939;52.00085300;4.17406100;2023-06-19T01:59:57;20.00;99.90
9800;DHT22;4939;52.00085300;4.17406100;2023-06-19T02:02:22;19.90;99.90
9800;DHT22;4939;52.00085300;4.17406100;2023-06-19T02:04:48;19.70;99.90
9800;DHT22;4939;52.00085300;4.17406100;2023-06-19T02:07:14;19.70;99.90
9800;DHT22;4939;52.00085300;4.17406100;2023-06-19T02:09:40;19.50;99.90
9800;DHT22;4939;52.00085300;4.17406100;2023-06-19T02:12:12;19.50;99.90
9800;DHT22;4939;52.00085300;4.17406100;2023-06-19T02:14:38;19.40;99.90
9800;DHT22;4939;52.00085300;4.17406100;2023-06-19T02:17:04;19.30;99.90
9800;DHT22;4939;52.00085300;4.17406100;2023-06-19T02:19:29;19.20;99.90
9800;DHT22;4939;52.00085300;4.17406100;2023-06-19T02:22:02;19.30;99.90
9800;DHT22;4939;52.00085300;4.17406100;2023-06-19T02:24:27;19.10;99.90
9800;DHT22;4939;52.00085300;4.17406100;2023-06-19T02:26:53;19.10;99.90
9800;DHT22;4939;52.00085300;4.17406100;2023-06-19T02:29:19;19.20;99.90
9800;DHT22;4939;52.00085300;4.17406100;2023-06-19T02:31:45;19.00;99.90
9800;DHT22;4939;52.00085300;4.17406100;2023-06-19T02:34:11;18.90;99.90
9800;DHT22;4939;52.00085300;4.17406100;2023-06-19T02:36:37;19.00;99.90
9800;DHT22;4939;52.00085300;4.17406100;2023-06-19T02:39:07;18.90;99.90
9800;DHT22;4939;52.00085300;4.17406100;2023-06-19T02:41:33;18.90;99.90
9800;DHT22;4939;52.00085300;4.17406100;2023-06-19T02:43:59;18.90;99.90
9800;DHT22;4939;52.00085300;4.17406100;2023-06-19T02:46:24;19.00;99.90
9800;DHT22;4939;52.00085300;4.17406100;2023-06-19T02:48:50;18.90;99.90
9800;DHT22;4939;52.00085300;4.17406100;2023-06-19T02:51:16;18.90;99.90
9800;DHT22;4939;52.00085300;4.17406100;2023-06-19T02:53:42;18.80;99.90
9800;DHT22;4939;52.00085300;4.17406100;2023-06-19T02:56:10;18.70;99.90
9800;DHT22;4939;52.00085300;4.17406100;2023-06-19T02:58:36;18.70;99.90
9800;DHT22;4939;52.00085300;4.17406100;2023-06-19T03:01:03;19.00;99.90
9800;DHT22;4939;52.00085300;4.17406100;2023-06-19T03:03:32;18.60;99.90
9800;DHT22;4939;52.00085300;4.17406100;2023-06-19T03:06:05;18.60;99.90
9800;DHT22;4939;52.00085300;4.17406100;2023-06-19T03:08:36;18.60;99.90
9800;DHT22;4939;52.00085300;4.17406100;2023-06-19T03:11:02;18.60;99.90
9800;DHT22;4939;52.00085300;4.17406100;2023-06-19T03:13:53;18.60;99.90
9800;DHT22;4939;52.00085300;4.17406100;2023-06-19T03:16:20;18.50;99.90
9800;DHT22;4939;52.00085300;4.17406100;2023-06-19T03:18:46;18.50;99.90
9800;DHT22;4939;52.00085300;4.17406100;2023-06-19T03:21:13;18.40;99.90
9800;DHT22;4939;52.00085300;4.17406100;2023-06-19T03:23:39;18.40;99.90
9800;DHT22;4939;52.00085300;4.17406100;2023-06-19T03:26:09;18.40;99.90
9800;DHT22;4939;52.00085300;4.17406100;2023-06-19T03:28:38;18.40;99.90
9800;DHT22;4939;52.00085300;4.17406100;2023-06-19T03:31:04;18.30;99.90
9800;DHT22;4939;52.00085300;4.17406100;2023-06-19T03:33:30;18.30;99.90
9800;DHT22;4939;52.00085300;4.17406100;2023-06-19T03:35:56;18.20;99.90
9800;DHT22;4939;52.00085300;4.17406100;2023-06-19T03:38:22;18.20;99.90
9800;DHT22;4939;52.00085300;4.17406100;2023-06-19T03:40:48;18.20;99.90
9800;DHT22;4939;52.00085300;4.17406100;2023-06-19T03:43:13;18.10;99.90
9800;DHT22;4939;52.00085300;4.17406100;2023-06-19T03:45:39;18.10;99.90
9800;DHT22;4939;52.00085300;4.17406100;2023-06-19T03:48:05;18.10;99.90
9800;DHT22;4939;52.00085300;4.17406100;2023-06-19T03:50:31;18.00;99.90
9800;DHT22;4939;52.00085300;4.17406100;2023-06-19T03:52:57;18.00;99.90
9800;DHT22;4939;52.00085300;4.17406100;2023-06-19T03:55:23;18.40;99.90
9800;DHT22;4939;52.00085300;4.17406100;2023-06-19T03:57:48;18.00;99.90
9800;DHT22;4939;52.00085300;4.17406100;2023-06-19T04:00:16;18.00;99.90
9800;DHT22;4939;52.00085300;4.17406100;2023-06-19T04:02:44;18.00;99.90
9800;DHT22;4939;52.00085300;4.17406100;2023-06-19T04:05:12;18.00;99.90
9800;DHT22;4939;52.00085300;4.17406100;2023-06-19T04:07:39;18.00;99.90
9800;DHT22;4939;52.00085300;4.17406100;2023-06-19T04:10:05;18.00;99.90
9800;DHT22;4939;52.00085300;4.17406100;2023-06-19T04:12:31;18.00;99.90
9800;DHT22;4939;52.00085300;4.17406100;2023-06-19T04:14:56;18.00;99.90
9800;DHT22;4939;52.00085300;4.17406100;2023-06-19T04:17:22;18.00;99.90
9800;DHT22;4939;52.00085300;4.17406100;2023-06-19T04:19:48;18.10;99.90
9800;DHT22;4939;52.00085300;4.17406100;2023-06-19T04:22:13;18.90;99.90
9800;DHT22;4939;52.00085300;4.17406100;2023-06-19T04:24:39;18.00;99.90
9800;DHT22;4939;52.00085300;4.17406100;2023-06-19T04:27:05;18.00;99.90
9800;DHT22;4939;52.00085300;4.17406100;2023-06-19T04:29:33;18.00;99.90
9800;DHT22;4939;52.00085300;4.17406100;2023-06-19T04:32:00;18.00;99.90
9800;DHT22;4939;52.00085300;4.17406100;2023-06-19T04:34:26;18.00;99.90
9800;DHT22;4939;52.00085300;4.17406100;2023-06-19T04:36:52;17.90;99.90
9800;DHT22;4939;52.00085300;4.17406100;2023-06-19T04:39:17;17.90;99.90
9800;DHT22;4939;52.00085300;4.17406100;2023-06-19T04:41:43;17.80;99.90
9800;DHT22;4939;52.00085300;4.17406100;2023-06-19T04:44:10;17.80;99.90
9800;DHT22;4939;52.00085300;4.17406100;2023-06-19T04:46:38;17.70;99.90
9800;DHT22;4939;52.00085300;4.17406100;2023-06-19T04:49:04;17.60;99.90
9800;DHT22;4939;52.00085300;4.17406100;2023-06-19T04:51:33;17.60;99.90
9800;DHT22;4939;52.00085300;4.17406100;2023-06-19T04:53:59;17.60;99.90
9800;DHT22;4939;52.00085300;4.17406100;2023-06-19T04:56:25;17.60;99.90
9800;DHT22;4939;52.00085300;4.17406100;2023-06-19T04:58:51;17.70;99.90
9800;DHT22;4939;52.00085300;4.17406100;2023-06-19T05:01:17;17.70;99.90
9800;DHT22;4939;52.00085300;4.17406100;2023-06-19T05:03:47;17.70;99.90
9800;DHT22;4939;52.00085300;4.17406100;2023-06-19T05:06:13;17.70;99.90
9800;DHT22;4939;52.00085300;4.17406100;2023-06-19T05:08:39;18.00;99.90
9800;DHT22;4939;52.00085300;4.17406100;2023-06-19T05:11:04;17.70;99.90
9800;DHT22;4939;52.00085300;4.17406100;2023-06-19T05:13:30;17.70;99.90
9800;DHT22;4939;52.00085300;4.17406100;2023-06-19T05:15:56;17.60;99.90
9800;DHT22;4939;52.00085300;4.17406100;2023-06-19T05:18:22;17.60;99.90
9800;DHT22;4939;52.00085300;4.17406100;2023-06-19T05:20:48;17.60;99.90
9800;DHT22;4939;52.00085300;4.17406100;2023-06-19T05:23:13;17.50;99.90
9800;DHT22;4939;52.00085300;4.17406100;2023-06-19T05:25:39;17.40;99.90
9800;DHT22;4939;52.00085300;4.17406100;2023-06-19T05:28:05;17.30;99.90
9800;DHT22;4939;52.00085300;4.17406100;2023-06-19T05:30:30;17.40;99.90
9800;DHT22;4939;52.00085300;4.17406100;2023-06-19T05:32:56;17.30;99.90
9800;DHT22;4939;52.00085300;4.17406100;2023-06-19T05:35:22;17.40;99.90
9800;DHT22;4939;52.00085300;4.17406100;2023-06-19T05:37:48;17.30;99.90
9800;DHT22;4939;52.00085300;4.17406100;2023-06-19T05:40:13;17.20;99.90
9800;DHT22;4939;52.00085300;4.17406100;2023-06-19T05:42:40;17.20;99.90
9800;DHT22;4939;52.00085300;4.17406100;2023-06-19T05:45:06;17.30;99.90
9800;DHT22;4939;52.00085300;4.17406100;2023-06-19T05:47:32;17.30;99.90
9800;DHT22;4939;52.00085300;4.17406100;2023-06-19T05:49:58;17.40;99.90
9800;DHT22;4939;52.00085300;4.17406100;2023-06-19T05:52:24;17.40;99.90
9800;DHT22;4939;52.00085300;4.17406100;2023-06-19T05:54:50;17.50;99.90
9800;DHT22;4939;52.00085300;4.17406100;2023-06-19T05:57:16;17.40;99.90
9800;DHT22;4939;52.00085300;4.17406100;2023-06-19T05:59:49;17.40;99.90
9800;DHT22;4939;52.00085300;4.17406100;2023-06-19T06:02:17;17.40;99.90
9800;DHT22;4939;52.00085300;4.17406100;2023-06-19T06:04:44;17.50;99.90
9800;DHT22;4939;52.00085300;4.17406100;2023-06-19T06:07:09;17.50;99.90
9800;DHT22;4939;52.00085300;4.17406100;2023-06-19T06:09:35;17.60;99.90
9800;DHT22;4939;52.00085300;4.17406100;2023-06-19T06:12:05;17.60;99.90
9800;DHT22;4939;52.00085300;4.17406100;2023-06-19T06:14:30;17.60;99.90
9800;DHT22;4939;52.00085300;4.17406100;2023-06-19T06:16:56;17.70;99.90
9800;DHT22;4939;52.00085300;4.17406100;2023-06-19T06:19:22;17.80;99.90
9800;DHT22;4939;52.00085300;4.17406100;2023-06-19T06:21:52;17.80;99.90
9800;DHT22;4939;52.00085300;4.17406100;2023-06-19T06:24:19;17.80;99.90
9800;DHT22;4939;52.00085300;4.17406100;2023-06-19T06:26:46;17.90;99.90
9800;DHT22;4939;52.00085300;4.17406100;2023-06-19T06:29:12;17.90;99.90
9800;DHT22;4939;52.00085300;4.17406100;2023-06-19T06:31:38;18.10;99.90
9800;DHT22;4939;52.00085300;4.17406100;2023-06-19T06:34:04;18.10;99.90
9800;DHT22;4939;52.00085300;4.17406100;2023-06-19T06:36:30;18.30;99.90
9800;DHT22;4939;52.00085300;4.17406100;2023-06-19T06:38:57;18.30;99.90
9800;DHT22;4939;52.00085300;4.17406100;2023-06-19T06:41:22;18.30;99.90
9800;DHT22;4939;52.00085300;4.17406100;2023-06-19T06:43:48;18.30;99.90
9800;DHT22;4939;52.00085300;4.17406100;2023-06-19T06:46:13;18.20;99.90
9800;DHT22;4939;52.00085300;4.17406100;2023-06-19T06:48:40;18.30;99.90
9800;DHT22;4939;52.00085300;4.17406100;2023-06-19T06:51:05;18.40;99.90
9800;DHT22;4939;52.00085300;4.17406100;2023-06-19T06:53:31;18.40;99.90
9800;DHT22;4939;52.00085300;4.17406100;2023-06-19T06:55:59;18.30;99.90
9800;DHT22;4939;52.00085300;4.17406100;2023-06-19T06:58:26;18.20;99.90
9800;DHT22;4939;52.00085300;4.17406100;2023-06-19T07:00:55;18.30;99.90
9800;DHT22;4939;52.00085300;4.17406100;2023-06-19T07:03:24;18.30;99.90
9800;DHT22;4939;52.00085300;4.17406100;2023-06-19T07:05:50;18.40;99.90
9800;DHT22;4939;52.00085300;4.17406100;2023-06-19T07:08:15;18.30;99.90
9800;DHT22;4939;52.00085300;4.17406100;2023-06-19T07:10:44;18.30;99.90
9800;DHT22;4939;52.00085300;4.17406100;2023-06-19T07:13:09;18.20;99.90
9800;DHT22;4939;52.00085300;4.17406100;2023-06-19T07:15:35;18.30;99.90
9800;DHT22;4939;52.00085300;4.17406100;2023-06-19T07:18:02;18.40;99.90
9800;DHT22;4939;52.00085300;4.17406100;2023-06-19T07:20:27;18.50;99.90
9800;DHT22;4939;52.00085300;4.17406100;2023-06-19T07:22:53;18.50;99.90
9800;DHT22;4939;52.00085300;4.17406100;2023-06-19T07:25:19;18.60;99.90
9800;DHT22;4939;52.00085300;4.17406100;2023-06-19T07:27:46;18.70;99.90
9800;DHT22;4939;52.00085300;4.17406100;2023-06-19T07:30:12;18.80;99.90
9800;DHT22;4939;52.00085300;4.17406100;2023-06-19T07:32:38;18.70;99.90
9800;DHT22;4939;52.00085300;4.17406100;2023-06-19T07:35:06;18.80;99.90
9800;DHT22;4939;52.00085300;4.17406100;2023-06-19T07:37:33;18.70;99.90
9800;DHT22;4939;52.00085300;4.17406100;2023-06-19T07:39:58;18.70;99.90
9800;DHT22;4939;52.00085300;4.17406100;2023-06-19T07:42:25;18.60;99.90
9800;DHT22;4939;52.00085300;4.17406100;2023-06-19T07:44:51;18.60;99.90
9800;DHT22;4939;52.00085300;4.17406100;2023-06-19T07:47:18;18.50;99.90
9800;DHT22;4939;52.00085300;4.17406100;2023-06-19T07:49:44;18.60;99.90
9800;DHT22;4939;52.00085300;4.17406100;2023-06-19T07:52:11;18.60;99.90
9800;DHT22;4939;52.00085300;4.17406100;2023-06-19T07:54:54;18.60;99.90
9800;DHT22;4939;52.00085300;4.17406100;2023-06-19T07:57:20;18.80;99.90
9800;DHT22;4939;52.00085300;4.17406100;2023-06-19T07:59:50;18.90;99.90
9800;DHT22;4939;52.00085300;4.17406100;2023-06-19T08:02:18;18.90;99.90
9800;DHT22;4939;52.00085300;4.17406100;2023-06-19T08:04:45;19.00;99.90
9800;DHT22;4939;52.00085300;4.17406100;2023-06-19T08:07:12;19.00;99.90
9800;DHT22;4939;52.00085300;4.17406100;2023-06-19T08:09:38;18.80;99.90
9800;DHT22;4939;52.00085300;4.17406100;2023-06-19T08:12:05;18.70;99.90
9800;DHT22;4939;52.00085300;4.17406100;2023-06-19T08:14:32;19.00;99.90
9800;DHT22;4939;52.00085300;4.17406100;2023-06-19T08:16:58;19.10;99.90
9800;DHT22;4939;52.00085300;4.17406100;2023-06-19T08:19:24;19.10;99.90
9800;DHT22;4939;52.00085300;4.17406100;2023-06-19T08:21:50;19.30;99.90
9800;DHT22;4939;52.00085300;4.17406100;2023-06-19T08:24:16;19.40;99.90
9800;DHT22;4939;52.00085300;4.17406100;2023-06-19T08:26:41;19.50;99.90
9800;DHT22;4939;52.00085300;4.17406100;2023-06-19T08:29:07;19.20;99.90
9800;DHT22;4939;52.00085300;4.17406100;2023-06-19T08:31:32;19.20;99.90
9800;DHT22;4939;52.00085300;4.17406100;2023-06-19T08:34:00;19.20;99.90
9800;DHT22;4939;52.00085300;4.17406100;2023-06-19T08:36:30;19.20;99.90
9800;DHT22;4939;52.00085300;4.17406100;2023-06-19T08:38:56;19.50;99.90
9800;DHT22;4939;52.00085300;4.17406100;2023-06-19T08:41:21;19.50;99.90
9800;DHT22;4939;52.00085300;4.17406100;2023-06-19T08:43:49;19.50;99.90
9800;DHT22;4939;52.00085300;4.17406100;2023-06-19T08:46:16;19.60;99.90
9800;DHT22;4939;52.00085300;4.17406100;2023-06-19T08:48:43;19.40;99.90
9800;DHT22;4939;52.00085300;4.17406100;2023-06-19T08:51:10;19.50;99.90
9800;DHT22;4939;52.00085300;4.17406100;2023-06-19T08:53:44;19.50;99.90
9800;DHT22;4939;52.00085300;4.17406100;2023-06-19T08:56:11;19.50;99.90
9800;DHT22;4939;52.00085300;4.17406100;2023-06-19T08:58:36;19.90;99.90
9800;DHT22;4939;52.00085300;4.17406100;2023-06-19T09:01:03;20.10;99.90
9800;DHT22;4939;52.00085300;4.17406100;2023-06-19T09:03:29;20.10;99.90
9800;DHT22;4939;52.00085300;4.17406100;2023-06-19T09:05:54;20.30;99.90
9800;DHT22;4939;52.00085300;4.17406100;2023-06-19T09:08:22;20.60;99.90
9800;DHT22;4939;52.00085300;4.17406100;2023-06-19T09:10:56;20.60;99.90
9800;DHT22;4939;52.00085300;4.17406100;2023-06-19T09:13:21;20.90;99.90
9800;DHT22;4939;52.00085300;4.17406100;2023-06-19T09:15:47;20.80;99.90
9800;DHT22;4939;52.00085300;4.17406100;2023-06-19T09:18:12;20.90;99.90
9800;DHT22;4939;52.00085300;4.17406100;2023-06-19T09:20:40;20.70;99.90
9800;DHT22;4939;52.00085300;4.17406100;2023-06-19T09:23:11;20.90;99.90
9800;DHT22;4939;52.00085300;4.17406100;2023-06-19T09:25:57;21.20;99.90
9800;DHT22;4939;52.00085300;4.17406100;2023-06-19T09:28:25;21.30;99.90
9800;DHT22;4939;52.00085300;4.17406100;2023-06-19T09:31:00;21.80;99.90
9800;DHT22;4939;52.00085300;4.17406100;2023-06-19T09:33:33;21.80;99.90
9800;DHT22;4939;52.00085300;4.17406100;2023-06-19T09:36:02;21.80;99.90
9800;DHT22;4939;52.00085300;4.17406100;2023-06-19T09:38:33;22.10;99.90
9800;DHT22;4939;52.00085300;4.17406100;2023-06-19T09:41:03;22.20;99.90
9800;DHT22;4939;52.00085300;4.17406100;2023-06-19T09:43:32;22.40;99.90
9800;DHT22;4939;52.00085300;4.17406100;2023-06-19T09:45:58;22.40;99.90
9800;DHT22;4939;52.00085300;4.17406100;2023-06-19T09:48:30;22.40;99.90
9800;DHT22;4939;52.00085300;4.17406100;2023-06-19T09:51:07;22.40;99.90
9800;DHT22;4939;52.00085300;4.17406100;2023-06-19T09:53:34;22.70;99.90
9800;DHT22;4939;52.00085300;4.17406100;2023-06-19T09:56:00;22.50;99.90
9800;DHT22;4939;52.00085300;4.17406100;2023-06-19T09:58:26;22.80;99.90
9800;DHT22;4939;52.00085300;4.17406100;2023-06-19T10:00:53;24.80;99.90
9800;DHT22;4939;52.00085300;4.17406100;2023-06-19T10:03:19;22.30;99.90
9800;DHT22;4939;52.00085300;4.17406100;2023-06-19T10:05:45;22.30;99.90
9800;DHT22;4939;52.00085300;4.17406100;2023-06-19T10:08:11;22.50;99.90
9800;DHT22;4939;52.00085300;4.17406100;2023-06-19T10:10:46;22.50;99.90
9800;DHT22;4939;52.00085300;4.17406100;2023-06-19T10:13:15;22.70;99.90
9800;DHT22;4939;52.00085300;4.17406100;2023-06-19T10:15:43;22.70;99.90
9800;DHT22;4939;52.00085300;4.17406100;2023-06-19T10:18:16;22.90;99.90
9800;DHT22;4939;52.00085300;4.17406100;2023-06-19T10:20:42;22.90;99.90
9800;DHT22;4939;52.00085300;4.17406100;2023-06-19T10:23:19;22.70;99.90
9800;DHT22;4939;52.00085300;4.17406100;2023-06-19T10:25:49;22.90;99.90
9800;DHT22;4939;52.00085300;4.17406100;2023-06-19T10:28:31;23.10;99.90
9800;DHT22;4939;52.00085300;4.17406100;2023-06-19T10:31:02;22.90;99.90
9800;DHT22;4939;52.00085300;4.17406100;2023-06-19T10:33:33;22.80;99.90
9800;DHT22;4939;52.00085300;4.17406100;2023-06-19T10:38:39;23.10;99.90
9800;DHT22;4939;52.00085300;4.17406100;2023-06-19T10:41:05;23.30;99.90
9800;DHT22;4939;52.00085300;4.17406100;2023-06-19T10:43:30;23.40;99.90
9800;DHT22;4939;52.00085300;4.17406100;2023-06-19T10:45:58;23.40;99.90
9800;DHT22;4939;52.00085300;4.17406100;2023-06-19T10:48:24;23.80;99.90
9800;DHT22;4939;52.00085300;4.17406100;2023-06-19T10:50:50;24.00;99.90
9800;DHT22;4939;52.00085300;4.17406100;2023-06-19T10:53:26;24.00;99.90
9800;DHT22;4939;52.00085300;4.17406100;2023-06-19T10:56:02;24.00;99.90
9800;DHT22;4939;52.00085300;4.17406100;2023-06-19T10:58:28;24.40;99.90
9800;DHT22;4939;52.00085300;4.17406100;2023-06-19T11:00:55;24.70;99.90
9800;DHT22;4939;52.00085300;4.17406100;2023-06-19T11:03:21;24.80;99.90
9800;DHT22;4939;52.00085300;4.17406100;2023-06-19T11:05:47;23.50;99.90
9800;DHT22;4939;52.00085300;4.17406100;2023-06-19T11:08:21;24.80;99.90
9800;DHT22;4939;52.00085300;4.17406100;2023-06-19T11:10:47;24.50;99.90
9800;DHT22;4939;52.00085300;4.17406100;2023-06-19T11:13:19;24.10;99.90
9800;DHT22;4939;52.00085300;4.17406100;2023-06-19T11:15:45;24.30;99.90
9800;DHT22;4939;52.00085300;4.17406100;2023-06-19T11:18:15;24.10;99.90
9800;DHT22;4939;52.00085300;4.17406100;2023-06-19T11:20:49;24.30;99.90
9800;DHT22;4939;52.00085300;4.17406100;2023-06-19T11:23:16;23.90;99.90
9800;DHT22;4939;52.00085300;4.17406100;2023-06-19T11:25:42;24.50;99.90
9800;DHT22;4939;52.00085300;4.17406100;2023-06-19T11:28:15;25.10;99.90
9800;DHT22;4939;52.00085300;4.17406100;2023-06-19T11:30:43;25.10;99.90
9800;DHT22;4939;52.00085300;4.17406100;2023-06-19T11:33:19;25.30;99.90
9800;DHT22;4939;52.00085300;4.17406100;2023-06-19T11:35:49;25.20;99.90
9800;DHT22;4939;52.00085300;4.17406100;2023-06-19T11:38:22;25.40;99.90
9800;DHT22;4939;52.00085300;4.17406100;2023-06-19T11:40:48;25.10;99.90
9800;DHT22;4939;52.00085300;4.17406100;2023-06-19T11:43:24;25.00;99.90
9800;DHT22;4939;52.00085300;4.17406100;2023-06-19T11:45:51;24.90;99.90
9800;DHT22;4939;52.00085300;4.17406100;2023-06-19T11:48:24;25.10;99.90
9800;DHT22;4939;52.00085300;4.17406100;2023-06-19T11:50:51;25.00;99.90
9800;DHT22;4939;52.00085300;4.17406100;2023-06-19T11:53:17;24.80;99.90
9800;DHT22;4939;52.00085300;4.17406100;2023-06-19T11:55:43;24.70;99.90
9800;DHT22;4939;52.00085300;4.17406100;2023-06-19T11:58:09;25.00;99.90
9800;DHT22;4939;52.00085300;4.17406100;2023-06-19T12:00:36;25.90;99.90
9800;DHT22;4939;52.00085300;4.17406100;2023-06-19T12:03:02;25.30;99.90
9800;DHT22;4939;52.00085300;4.17406100;2023-06-19T12:05:28;24.80;99.90
9800;DHT22;4939;52.00085300;4.17406100;2023-06-19T12:07:54;24.30;99.90
9800;DHT22;4939;52.00085300;4.17406100;2023-06-19T12:10:19;24.30;99.90
9800;DHT22;4939;52.00085300;4.17406100;2023-06-19T12:12:45;24.20;99.90
9800;DHT22;4939;52.00085300;4.17406100;2023-06-19T12:15:11;24.40;99.90
9800;DHT22;4939;52.00085300;4.17406100;2023-06-19T12:17:36;23.60;99.90
9800;DHT22;4939;52.00085300;4.17406100;2023-06-19T12:20:03;24.40;99.90
9800;DHT22;4939;52.00085300;4.17406100;2023-06-19T12:22:34;24.60;99.90
9800;DHT22;4939;52.00085300;4.17406100;2023-06-19T12:25:01;24.50;99.90
9800;DHT22;4939;52.00085300;4.17406100;2023-06-19T12:27:26;24.50;99.90
9800;DHT22;4939;52.00085300;4.17406100;2023-06-19T12:29:52;24.70;99.90
9800;DHT22;4939;52.00085300;4.17406100;2023-06-19T12:32:18;24.60;99.90
9800;DHT22;4939;52.00085300;4.17406100;2023-06-19T12:34:43;24.90;99.90
9800;DHT22;4939;52.00085300;4.17406100;2023-06-19T12:37:15;24.90;99.90
9800;DHT22;4939;52.00085300;4.17406100;2023-06-19T12:39:43;24.70;99.90
9800;DHT22;4939;52.00085300;4.17406100;2023-06-19T12:42:09;24.70;99.90
9800;DHT22;4939;52.00085300;4.17406100;2023-06-19T12:44:40;24.70;99.90
9800;DHT22;4939;52.00085300;4.17406100;2023-06-19T12:47:06;24.90;99.90
9800;DHT22;4939;52.00085300;4.17406100;2023-06-19T12:49:32;25.20;99.90
9800;DHT22;4939;52.00085300;4.17406100;2023-06-19T12:51:58;25.30;99.90
9800;DHT22;4939;52.00085300;4.17406100;2023-06-19T12:54:24;25.30;99.90
9800;DHT22;4939;52.00085300;4.17406100;2023-06-19T12:56:49;25.00;99.90
9800;DHT22;4939;52.00085300;4.17406100;2023-06-19T12:59:15;25.00;99.90
9800;DHT22;4939;52.00085300;4.17406100;2023-06-19T13:01:42;25.00;99.90
9800;DHT22;4939;52.00085300;4.17406100;2023-06-19T13:04:08;25.20;99.90
9800;DHT22;4939;52.00085300;4.17406100;2023-06-19T13:06:35;25.30;99.90
9800;DHT22;4939;52.00085300;4.17406100;2023-06-19T13:09:01;25.40;99.90
9800;DHT22;4939;52.00085300;4.17406100;2023-06-19T13:11:27;25.70;99.90
9800;DHT22;4939;52.00085300;4.17406100;2023-06-19T13:13:53;26.10;99.90
9800;DHT22;4939;52.00085300;4.17406100;2023-06-19T13:16:19;25.80;99.90
9800;DHT22;4939;52.00085300;4.17406100;2023-06-19T13:18:45;25.60;99.90
9800;DHT22;4939;52.00085300;4.17406100;2023-06-19T13:21:13;25.40;99.90
9800;DHT22;4939;52.00085300;4.17406100;2023-06-19T13:23:40;25.20;99.90
9800;DHT22;4939;52.00085300;4.17406100;2023-06-19T13:26:06;25.30;99.90
9800;DHT22;4939;52.00085300;4.17406100;2023-06-19T13:28:32;25.20;99.90
9800;DHT22;4939;52.00085300;4.17406100;2023-06-19T13:30:57;25.20;99.90
9800;DHT22;4939;52.00085300;4.17406100;2023-06-19T13:33:23;25.00;99.90
9800;DHT22;4939;52.00085300;4.17406100;2023-06-19T13:35:53;25.40;99.90
9800;DHT22;4939;52.00085300;4.17406100;2023-06-19T13:38:19;25.50;99.90
9800;DHT22;4939;52.00085300;4.17406100;2023-06-19T13:40:45;25.40;99.90
9800;DHT22;4939;52.00085300;4.17406100;2023-06-19T13:43:10;25.50;99.90
9800;DHT22;4939;52.00085300;4.17406100;2023-06-19T13:45:36;25.50;99.90
9800;DHT22;4939;52.00085300;4.17406100;2023-06-19T13:48:04;25.40;99.90
9800;DHT22;4939;52.00085300;4.17406100;2023-06-19T13:50:30;25.90;99.90
9800;DHT22;4939;52.00085300;4.17406100;2023-06-19T13:52:57;25.80;99.90